Horizontina, Brazil
Current Conditions -  °F | °C
As of 1:00 PM on Saturday 20 Dec 2014 (Local Time) from SGEN Reporting Station
Broken Clouds Broken Clouds  
Wind Chill: 91°   Ceiling: 3000
Heat Index: 102°   Visibility: 6mi
Dew Point: 75°   Wind: 17mph
Humidity: 59%   Direction: 360°N
Pressure: 29.62"   Gusts: NA
Location:  27.63°S, 54.31°W
Report Text: SGEN 201500Z 36015KT 9999 BKN030 33/24 Q1003
Loading
Personal Weather Stations






























Interactive Weather Map New forecast layout! Learn more

10-Day Weather Forecast

Advertisements
Track Severe Weather on mobile